sensor_id;sensor_type;location;lat;lon;timestamp;P1;durP1;ratioP1;P2;durP2;ratioP2
75793;SDS011;64418;47.536;19.074;2024-02-28T00:01:57;30.05;;;16.40;;
75793;SDS011;64418;47.536;19.074;2024-02-28T00:04:23;28.40;;;15.20;;
75793;SDS011;64418;47.536;19.074;2024-02-28T00:06:49;30.20;;;15.95;;
75793;SDS011;64418;47.536;19.074;2024-02-28T00:09:15;28.50;;;15.43;;
75793;SDS011;64418;47.536;19.074;2024-02-28T00:11:44;28.38;;;15.73;;
75793;SDS011;64418;47.536;19.074;2024-02-28T00:14:10;30.33;;;16.33;;
75793;SDS011;64418;47.536;19.074;2024-02-28T00:16:37;23.75;;;15.07;;
75793;SDS011;64418;47.536;19.074;2024-02-28T00:19:06;25.55;;;15.77;;
75793;SDS011;64418;47.536;19.074;2024-02-28T00:21:33;28.73;;;15.60;;
75793;SDS011;64418;47.536;19.074;2024-02-28T00:23:59;29.02;;;15.23;;
75793;SDS011;64418;47.536;19.074;2024-02-28T00:26:25;26.15;;;16.05;;
75793;SDS011;64418;47.536;19.074;2024-02-28T00:28:51;28.87;;;16.30;;
75793;SDS011;64418;47.536;19.074;2024-02-28T00:31:17;26.95;;;15.65;;
75793;SDS011;64418;47.536;19.074;2024-02-28T00:33:43;27.17;;;15.67;;
75793;SDS011;64418;47.536;19.074;2024-02-28T00:36:10;29.37;;;16.00;;
75793;SDS011;64418;47.536;19.074;2024-02-28T00:38:36;26.12;;;16.15;;
75793;SDS011;64418;47.536;19.074;2024-02-28T00:41:02;30.10;;;15.67;;
75793;SDS011;64418;47.536;19.074;2024-02-28T00:43:28;25.62;;;15.02;;
75793;SDS011;64418;47.536;19.074;2024-02-28T00:45:54;31.25;;;16.15;;
75793;SDS011;64418;47.536;19.074;2024-02-28T00:48:20;27.83;;;16.30;;
75793;SDS011;64418;47.536;19.074;2024-02-28T00:50:46;29.42;;;16.20;;
75793;SDS011;64418;47.536;19.074;2024-02-28T00:53:13;28.33;;;15.50;;
75793;SDS011;64418;47.536;19.074;2024-02-28T00:55:39;29.08;;;16.05;;
75793;SDS011;64418;47.536;19.074;2024-02-28T00:58:06;28.73;;;15.97;;
75793;SDS011;64418;47.536;19.074;2024-02-28T01:00:32;28.30;;;15.82;;
75793;SDS011;64418;47.536;19.074;2024-02-28T01:02:58;28.42;;;15.68;;
75793;SDS011;64418;47.536;19.074;2024-02-28T01:05:24;28.08;;;15.95;;
75793;SDS011;64418;47.536;19.074;2024-02-28T01:07:50;30.00;;;15.63;;
75793;SDS011;64418;47.536;19.074;2024-02-28T01:10:17;25.13;;;14.67;;
75793;SDS011;64418;47.536;19.074;2024-02-28T01:12:43;21.87;;;14.57;;
75793;SDS011;64418;47.536;19.074;2024-02-28T01:15:09;26.52;;;15.70;;
75793;SDS011;64418;47.536;19.074;2024-02-28T01:17:35;27.53;;;16.00;;
75793;SDS011;64418;47.536;19.074;2024-02-28T01:20:01;25.12;;;15.68;;
75793;SDS011;64418;47.536;19.074;2024-02-28T01:22:27;26.42;;;14.90;;
75793;SDS011;64418;47.536;19.074;2024-02-28T01:24:53;24.52;;;15.73;;
75793;SDS011;64418;47.536;19.074;2024-02-28T01:27:21;26.93;;;14.70;;
75793;SDS011;64418;47.536;19.074;2024-02-28T01:29:47;29.65;;;15.35;;
75793;SDS011;64418;47.536;19.074;2024-02-28T01:32:12;25.15;;;14.52;;
75793;SDS011;64418;47.536;19.074;2024-02-28T01:34:39;27.37;;;15.27;;
75793;SDS011;64418;47.536;19.074;2024-02-28T01:37:04;26.00;;;14.57;;
75793;SDS011;64418;47.536;19.074;2024-02-28T01:39:30;26.83;;;15.27;;
75793;SDS011;64418;47.536;19.074;2024-02-28T01:41:56;26.52;;;14.95;;
75793;SDS011;64418;47.536;19.074;2024-02-28T01:44:24;27.65;;;14.52;;
75793;SDS011;64418;47.536;19.074;2024-02-28T01:46:50;24.73;;;13.97;;
75793;SDS011;64418;47.536;19.074;2024-02-28T01:49:17;25.42;;;15.27;;
75793;SDS011;64418;47.536;19.074;2024-02-28T01:51:44;25.33;;;14.50;;
75793;SDS011;64418;47.536;19.074;2024-02-28T01:54:12;26.73;;;14.70;;
75793;SDS011;64418;47.536;19.074;2024-02-28T01:56:39;25.12;;;14.38;;
75793;SDS011;64418;47.536;19.074;2024-02-28T01:59:07;24.90;;;14.57;;
75793;SDS011;64418;47.536;19.074;2024-02-28T02:01:37;27.05;;;16.05;;
75793;SDS011;64418;47.536;19.074;2024-02-28T02:04:03;24.12;;;15.50;;
75793;SDS011;64418;47.536;19.074;2024-02-28T02:06:30;26.00;;;13.95;;
75793;SDS011;64418;47.536;19.074;2024-02-28T02:08:56;28.10;;;15.18;;
75793;SDS011;64418;47.536;19.074;2024-02-28T02:11:22;30.10;;;15.63;;
75793;SDS011;64418;47.536;19.074;2024-02-28T02:13:50;32.92;;;15.93;;
75793;SDS011;64418;47.536;19.074;2024-02-28T02:16:16;31.40;;;15.05;;
75793;SDS011;64418;47.536;19.074;2024-02-28T02:18:46;30.17;;;15.50;;
75793;SDS011;64418;47.536;19.074;2024-02-28T02:21:13;26.12;;;15.75;;
75793;SDS011;64418;47.536;19.074;2024-02-28T02:23:45;23.83;;;14.80;;
75793;SDS011;64418;47.536;19.074;2024-02-28T02:26:11;26.40;;;14.43;;
75793;SDS011;64418;47.536;19.074;2024-02-28T02:28:36;26.00;;;14.73;;
75793;SDS011;64418;47.536;19.074;2024-02-28T02:31:03;27.62;;;15.40;;
75793;SDS011;64418;47.536;19.074;2024-02-28T02:33:29;23.92;;;15.27;;
75793;SDS011;64418;47.536;19.074;2024-02-28T02:35:54;25.23;;;15.53;;
75793;SDS011;64418;47.536;19.074;2024-02-28T02:38:21;25.08;;;14.63;;
75793;SDS011;64418;47.536;19.074;2024-02-28T02:40:49;26.35;;;15.65;;
75793;SDS011;64418;47.536;19.074;2024-02-28T02:43:15;25.60;;;15.00;;
75793;SDS011;64418;47.536;19.074;2024-02-28T02:45:41;27.93;;;15.53;;
75793;SDS011;64418;47.536;19.074;2024-02-28T02:48:07;28.27;;;15.23;;
75793;SDS011;64418;47.536;19.074;2024-02-28T02:50:34;29.12;;;15.50;;
75793;SDS011;64418;47.536;19.074;2024-02-28T02:53:01;27.83;;;15.30;;
75793;SDS011;64418;47.536;19.074;2024-02-28T02:55:28;35.20;;;14.77;;
75793;SDS011;64418;47.536;19.074;2024-02-28T02:57:56;25.37;;;14.75;;
75793;SDS011;64418;47.536;19.074;2024-02-28T03:00:22;27.23;;;14.57;;
75793;SDS011;64418;47.536;19.074;2024-02-28T03:02:48;27.27;;;14.52;;
75793;SDS011;64418;47.536;19.074;2024-02-28T03:05:14;23.67;;;14.43;;
75793;SDS011;64418;47.536;19.074;2024-02-28T03:07:40;25.62;;;14.07;;
75793;SDS011;64418;47.536;19.074;2024-02-28T03:10:06;25.02;;;14.98;;
75793;SDS011;64418;47.536;19.074;2024-02-28T03:12:33;26.90;;;14.80;;
75793;SDS011;64418;47.536;19.074;2024-02-28T03:15:00;24.63;;;14.60;;
75793;SDS011;64418;47.536;19.074;2024-02-28T03:17:27;23.67;;;14.40;;
75793;SDS011;64418;47.536;19.074;2024-02-28T03:19:52;23.80;;;14.73;;
75793;SDS011;64418;47.536;19.074;2024-02-28T03:22:19;25.75;;;14.20;;
75793;SDS011;64418;47.536;19.074;2024-02-28T03:24:45;25.37;;;15.30;;
75793;SDS011;64418;47.536;19.074;2024-02-28T03:27:11;21.80;;;13.13;;
75793;SDS011;64418;47.536;19.074;2024-02-28T03:29:37;27.92;;;14.73;;
75793;SDS011;64418;47.536;19.074;2024-02-28T03:32:04;23.85;;;13.75;;
75793;SDS011;64418;47.536;19.074;2024-02-28T03:34:31;27.75;;;14.23;;
75793;SDS011;64418;47.536;19.074;2024-02-28T03:36:57;30.90;;;13.30;;
75793;SDS011;64418;47.536;19.074;2024-02-28T03:39:23;21.58;;;13.38;;
75793;SDS011;64418;47.536;19.074;2024-02-28T03:41:50;24.87;;;14.63;;
75793;SDS011;64418;47.536;19.074;2024-02-28T03:44:16;24.58;;;13.38;;
75793;SDS011;64418;47.536;19.074;2024-02-28T03:46:42;26.97;;;13.63;;
75793;SDS011;64418;47.536;19.074;2024-02-28T03:49:10;23.80;;;13.65;;
75793;SDS011;64418;47.536;19.074;2024-02-28T03:51:39;25.35;;;13.80;;
75793;SDS011;64418;47.536;19.074;2024-02-28T03:54:05;23.92;;;13.40;;
75793;SDS011;64418;47.536;19.074;2024-02-28T03:56:31;29.05;;;13.73;;
75793;SDS011;64418;47.536;19.074;2024-02-28T03:58:57;26.00;;;14.00;;
75793;SDS011;64418;47.536;19.074;2024-02-28T04:01:23;26.62;;;13.23;;
75793;SDS011;64418;47.536;19.074;2024-02-28T04:03:49;26.92;;;13.60;;
75793;SDS011;64418;47.536;19.074;2024-02-28T04:06:16;26.30;;;13.95;;
75793;SDS011;64418;47.536;19.074;2024-02-28T04:08:42;24.97;;;13.17;;
75793;SDS011;64418;47.536;19.074;2024-02-28T04:11:08;23.87;;;13.05;;
75793;SDS011;64418;47.536;19.074;2024-02-28T04:13:35;22.73;;;12.55;;
75793;SDS011;64418;47.536;19.074;2024-02-28T04:16:01;23.87;;;12.75;;
75793;SDS011;64418;47.536;19.074;2024-02-28T04:18:27;23.42;;;13.07;;
75793;SDS011;64418;47.536;19.074;2024-02-28T04:20:53;23.50;;;12.50;;
75793;SDS011;64418;47.536;19.074;2024-02-28T04:23:21;25.48;;;12.27;;
75793;SDS011;64418;47.536;19.074;2024-02-28T04:25:47;24.42;;;13.00;;
75793;SDS011;64418;47.536;19.074;2024-02-28T04:28:13;22.98;;;12.73;;
75793;SDS011;64418;47.536;19.074;2024-02-28T04:30:39;27.67;;;13.55;;
75793;SDS011;64418;47.536;19.074;2024-02-28T04:33:05;21.27;;;12.73;;
75793;SDS011;64418;47.536;19.074;2024-02-28T04:35:31;20.33;;;11.75;;
75793;SDS011;64418;47.536;19.074;2024-02-28T04:37:57;20.33;;;11.75;;
75793;SDS011;64418;47.536;19.074;2024-02-28T04:40:25;23.43;;;12.03;;
75793;SDS011;64418;47.536;19.074;2024-02-28T04:42:51;25.52;;;12.55;;
75793;SDS011;64418;47.536;19.074;2024-02-28T04:45:17;22.25;;;11.70;;
75793;SDS011;64418;47.536;19.074;2024-02-28T04:47:43;23.23;;;12.30;;
75793;SDS011;64418;47.536;19.074;2024-02-28T04:50:09;24.77;;;12.50;;
75793;SDS011;64418;47.536;19.074;2024-02-28T04:52:36;25.37;;;11.85;;
75793;SDS011;64418;47.536;19.074;2024-02-28T04:55:02;22.65;;;12.23;;
75793;SDS011;64418;47.536;19.074;2024-02-28T04:57:30;22.85;;;11.98;;
75793;SDS011;64418;47.536;19.074;2024-02-28T04:59:55;24.08;;;12.45;;
75793;SDS011;64418;47.536;19.074;2024-02-28T05:02:21;21.93;;;11.80;;
75793;SDS011;64418;47.536;19.074;2024-02-28T05:04:47;23.20;;;12.07;;
75793;SDS011;64418;47.536;19.074;2024-02-28T05:07:13;21.23;;;12.45;;
75793;SDS011;64418;47.536;19.074;2024-02-28T05:09:39;22.10;;;12.00;;
75793;SDS011;64418;47.536;19.074;2024-02-28T05:12:05;25.23;;;11.75;;
75793;SDS011;64418;47.536;19.074;2024-02-28T05:14:33;23.27;;;11.82;;
75793;SDS011;64418;47.536;19.074;2024-02-28T05:16:58;21.25;;;12.13;;
75793;SDS011;64418;47.536;19.074;2024-02-28T05:19:24;21.13;;;12.57;;
75793;SDS011;64418;47.536;19.074;2024-02-28T05:21:50;25.98;;;12.40;;
75793;SDS011;64418;47.536;19.074;2024-02-28T05:24:16;26.13;;;12.90;;
75793;SDS011;64418;47.536;19.074;2024-02-28T05:26:42;23.87;;;11.57;;
75793;SDS011;64418;47.536;19.074;2024-02-28T05:29:08;21.12;;;12.25;;
75793;SDS011;64418;47.536;19.074;2024-02-28T05:31:36;22.83;;;11.45;;
75793;SDS011;64418;47.536;19.074;2024-02-28T05:34:02;24.83;;;12.05;;
75793;SDS011;64418;47.536;19.074;2024-02-28T05:36:28;22.27;;;11.80;;
75793;SDS011;64418;47.536;19.074;2024-02-28T05:38:55;23.02;;;11.77;;
75793;SDS011;64418;47.536;19.074;2024-02-28T05:41:23;23.12;;;11.63;;
75793;SDS011;64418;47.536;19.074;2024-02-28T05:43:50;20.73;;;10.85;;
75793;SDS011;64418;47.536;19.074;2024-02-28T05:46:18;21.08;;;11.50;;
75793;SDS011;64418;47.536;19.074;2024-02-28T05:48:45;24.20;;;11.87;;
75793;SDS011;64418;47.536;19.074;2024-02-28T05:51:14;24.02;;;11.73;;
75793;SDS011;64418;47.536;19.074;2024-02-28T05:53:41;23.60;;;12.10;;
75793;SDS011;64418;47.536;19.074;2024-02-28T05:56:08;18.42;;;11.00;;
75793;SDS011;64418;47.536;19.074;2024-02-28T05:58:34;23.87;;;11.73;;
75793;SDS011;64418;47.536;19.074;2024-02-28T06:01:03;22.27;;;11.60;;
75793;SDS011;64418;47.536;19.074;2024-02-28T06:03:29;26.37;;;12.30;;
75793;SDS011;64418;47.536;19.074;2024-02-28T06:05:57;20.65;;;11.43;;
75793;SDS011;64418;47.536;19.074;2024-02-28T06:10:59;20.35;;;11.68;;
75793;SDS011;64418;47.536;19.074;2024-02-28T06:13:25;28.60;;;11.87;;
75793;SDS011;64418;47.536;19.074;2024-02-28T06:15:51;23.02;;;11.55;;
75793;SDS011;64418;47.536;19.074;2024-02-28T06:18:16;24.83;;;11.35;;
75793;SDS011;64418;47.536;19.074;2024-02-28T06:20:42;23.53;;;11.67;;
75793;SDS011;64418;47.536;19.074;2024-02-28T06:23:10;21.90;;;11.27;;
75793;SDS011;64418;47.536;19.074;2024-02-28T06:25:36;22.92;;;11.88;;
75793;SDS011;64418;47.536;19.074;2024-02-28T06:28:02;19.37;;;11.83;;
75793;SDS011;64418;47.536;19.074;2024-02-28T06:30:29;27.05;;;11.70;;
75793;SDS011;64418;47.536;19.074;2024-02-28T06:32:58;23.65;;;11.38;;
75793;SDS011;64418;47.536;19.074;2024-02-28T06:35:25;23.33;;;12.37;;
75793;SDS011;64418;47.536;19.074;2024-02-28T06:37:51;21.47;;;11.17;;
75793;SDS011;64418;47.536;19.074;2024-02-28T06:40:19;23.83;;;11.20;;
75793;SDS011;64418;47.536;19.074;2024-02-28T06:42:46;30.23;;;11.40;;
75793;SDS011;64418;47.536;19.074;2024-02-28T06:45:13;24.17;;;11.93;;
75793;SDS011;64418;47.536;19.074;2024-02-28T06:47:39;24.00;;;12.47;;
75793;SDS011;64418;47.536;19.074;2024-02-28T06:50:05;35.78;;;12.57;;
75793;SDS011;64418;47.536;19.074;2024-02-28T06:52:35;32.45;;;12.40;;
75793;SDS011;64418;47.536;19.074;2024-02-28T06:55:01;20.00;;;11.00;;
75793;SDS011;64418;47.536;19.074;2024-02-28T06:57:28;22.70;;;11.83;;
75793;SDS011;64418;47.536;19.074;2024-02-28T06:59:55;22.00;;;10.65;;
75793;SDS011;64418;47.536;19.074;2024-02-28T07:02:21;23.02;;;11.50;;
75793;SDS011;64418;47.536;19.074;2024-02-28T07:04:47;22.98;;;11.77;;
75793;SDS011;64418;47.536;19.074;2024-02-28T07:07:13;23.23;;;12.02;;
75793;SDS011;64418;47.536;19.074;2024-02-28T07:09:38;17.97;;;10.57;;
75793;SDS011;64418;47.536;19.074;2024-02-28T07:12:05;24.60;;;11.70;;
75793;SDS011;64418;47.536;19.074;2024-02-28T07:14:33;22.85;;;11.32;;
75793;SDS011;64418;47.536;19.074;2024-02-28T07:17:00;24.33;;;10.87;;
75793;SDS011;64418;47.536;19.074;2024-02-28T07:19:26;24.25;;;10.65;;
75793;SDS011;64418;47.536;19.074;2024-02-28T07:21:52;22.33;;;11.63;;
75793;SDS011;64418;47.536;19.074;2024-02-28T07:24:18;20.60;;;10.40;;
75793;SDS011;64418;47.536;19.074;2024-02-28T07:26:45;30.63;;;11.27;;
75793;SDS011;64418;47.536;19.074;2024-02-28T07:29:11;25.08;;;11.32;;
75793;SDS011;64418;47.536;19.074;2024-02-28T07:31:39;21.43;;;10.53;;
75793;SDS011;64418;47.536;19.074;2024-02-28T07:34:05;26.95;;;11.30;;
75793;SDS011;64418;47.536;19.074;2024-02-28T07:36:31;32.38;;;11.27;;
75793;SDS011;64418;47.536;19.074;2024-02-28T07:38:57;28.42;;;11.02;;
75793;SDS011;64418;47.536;19.074;2024-02-28T07:41:24;22.50;;;9.98;;
75793;SDS011;64418;47.536;19.074;2024-02-28T07:43:50;20.90;;;10.20;;
75793;SDS011;64418;47.536;19.074;2024-02-28T07:48:55;18.40;;;9.23;;
75793;SDS011;64418;47.536;19.074;2024-02-28T07:51:25;16.42;;;9.13;;
75793;SDS011;64418;47.536;19.074;2024-02-28T07:53:57;18.77;;;9.05;;
75793;SDS011;64418;47.536;19.074;2024-02-28T07:58:59;14.98;;;8.90;;
75793;SDS011;64418;47.536;19.074;2024-02-28T08:01:39;20.85;;;9.55;;
75793;SDS011;64418;47.536;19.074;2024-02-28T08:04:16;21.23;;;10.25;;
75793;SDS011;64418;47.536;19.074;2024-02-28T08:06:42;18.87;;;9.25;;
75793;SDS011;64418;47.536;19.074;2024-02-28T08:09:16;16.70;;;8.67;;
75793;SDS011;64418;47.536;19.074;2024-02-28T08:11:43;21.87;;;9.20;;
75793;SDS011;64418;47.536;19.074;2024-02-28T08:14:10;18.92;;;9.65;;
75793;SDS011;64418;47.536;19.074;2024-02-28T08:16:41;24.30;;;9.02;;
75793;SDS011;64418;47.536;19.074;2024-02-28T08:19:08;23.15;;;9.05;;
75793;SDS011;64418;47.536;19.074;2024-02-28T08:21:38;23.33;;;9.80;;
75793;SDS011;64418;47.536;19.074;2024-02-28T08:24:11;16.50;;;8.80;;
75793;SDS011;64418;47.536;19.074;2024-02-28T08:26:39;17.45;;;8.63;;
75793;SDS011;64418;47.536;19.074;2024-02-28T08:29:17;16.42;;;8.55;;
75793;SDS011;64418;47.536;19.074;2024-02-28T08:31:44;23.42;;;17.25;;
75793;SDS011;64418;47.536;19.074;2024-02-28T08:36:51;22.90;;;10.48;;
75793;SDS011;64418;47.536;19.074;2024-02-28T08:39:20;22.30;;;9.85;;
75793;SDS011;64418;47.536;19.074;2024-02-28T08:41:48;31.20;;;10.00;;
75793;SDS011;64418;47.536;19.074;2024-02-28T08:44:14;25.02;;;9.88;;
75793;SDS011;64418;47.536;19.074;2024-02-28T08:46:40;16.30;;;8.80;;
75793;SDS011;64418;47.536;19.074;2024-02-28T08:49:07;17.65;;;9.07;;
75793;SDS011;64418;47.536;19.074;2024-02-28T08:51:34;14.07;;;8.70;;
75793;SDS011;64418;47.536;19.074;2024-02-28T08:54:03;16.27;;;8.55;;
75793;SDS011;64418;47.536;19.074;2024-02-28T08:56:30;21.00;;;8.67;;
75793;SDS011;64418;47.536;19.074;2024-02-28T08:58:58;19.48;;;10.05;;
75793;SDS011;64418;47.536;19.074;2024-02-28T09:01:25;20.75;;;9.95;;
75793;SDS011;64418;47.536;19.074;2024-02-28T09:03:56;22.15;;;9.23;;
75793;SDS011;64418;47.536;19.074;2024-02-28T09:06:24;20.20;;;9.55;;
75793;SDS011;64418;47.536;19.074;2024-02-28T09:08:51;20.37;;;9.70;;
75793;SDS011;64418;47.536;19.074;2024-02-28T09:11:23;16.90;;;9.05;;
75793;SDS011;64418;47.536;19.074;2024-02-28T09:13:55;25.48;;;16.30;;
75793;SDS011;64418;47.536;19.074;2024-02-28T09:16:22;19.25;;;10.52;;
75793;SDS011;64418;47.536;19.074;2024-02-28T09:18:49;16.67;;;9.32;;
75793;SDS011;64418;47.536;19.074;2024-02-28T09:21:21;20.77;;;9.63;;
75793;SDS011;64418;47.536;19.074;2024-02-28T09:23:51;19.25;;;9.55;;
75793;SDS011;64418;47.536;19.074;2024-02-28T09:26:23;23.55;;;9.68;;
75793;SDS011;64418;47.536;19.074;2024-02-28T09:28:51;21.25;;;8.65;;
75793;SDS011;64418;47.536;19.074;2024-02-28T09:31:18;24.02;;;9.32;;
75793;SDS011;64418;47.536;19.074;2024-02-28T09:33:50;21.03;;;9.37;;
75793;SDS011;64418;47.536;19.074;2024-02-28T09:36:18;27.60;;;9.57;;
75793;SDS011;64418;47.536;19.074;2024-02-28T09:38:45;20.88;;;9.32;;
75793;SDS011;64418;47.536;19.074;2024-02-28T09:41:19;17.08;;;8.30;;
75793;SDS011;64418;47.536;19.074;2024-02-28T09:46:26;23.03;;;10.57;;
75793;SDS011;64418;47.536;19.074;2024-02-28T09:48:52;19.15;;;9.30;;
75793;SDS011;64418;47.536;19.074;2024-02-28T09:51:24;14.27;;;8.25;;
75793;SDS011;64418;47.536;19.074;2024-02-28T09:53:51;18.33;;;9.15;;
75793;SDS011;64418;47.536;19.074;2024-02-28T09:56:18;18.33;;;8.50;;
75793;SDS011;64418;47.536;19.074;2024-02-28T09:58:47;15.40;;;8.17;;
75793;SDS011;64418;47.536;19.074;2024-02-28T10:01:13;16.98;;;8.23;;
75793;SDS011;64418;47.536;19.074;2024-02-28T10:03:44;14.07;;;8.48;;
75793;SDS011;64418;47.536;19.074;2024-02-28T10:06:13;15.85;;;7.97;;
75793;SDS011;64418;47.536;19.074;2024-02-28T10:08:39;18.52;;;9.05;;
75793;SDS011;64418;47.536;19.074;2024-02-28T10:11:07;17.00;;;8.20;;
75793;SDS011;64418;47.536;19.074;2024-02-28T10:13:42;16.15;;;8.00;;
75793;SDS011;64418;47.536;19.074;2024-02-28T10:16:10;14.73;;;7.40;;
75793;SDS011;64418;47.536;19.074;2024-02-28T10:18:36;16.15;;;8.43;;
75793;SDS011;64418;47.536;19.074;2024-02-28T10:21:05;14.50;;;8.23;;
75793;SDS011;64418;47.536;19.074;2024-02-28T10:23:32;15.37;;;7.37;;
75793;SDS011;64418;47.536;19.074;2024-02-28T10:26:00;20.08;;;9.38;;
75793;SDS011;64418;47.536;19.074;2024-02-28T10:28:26;14.80;;;8.35;;
75793;SDS011;64418;47.536;19.074;2024-02-28T10:30:53;17.48;;;8.07;;
75793;SDS011;64418;47.536;19.074;2024-02-28T10:33:20;13.77;;;7.80;;
75793;SDS011;64418;47.536;19.074;2024-02-28T10:35:46;14.70;;;7.53;;
75793;SDS011;64418;47.536;19.074;2024-02-28T10:38:18;15.15;;;7.80;;
75793;SDS011;64418;47.536;19.074;2024-02-28T10:40:44;12.82;;;7.05;;
75793;SDS011;64418;47.536;19.074;2024-02-28T10:43:12;16.42;;;8.38;;
75793;SDS011;64418;47.536;19.074;2024-02-28T10:45:42;13.55;;;8.35;;
75793;SDS011;64418;47.536;19.074;2024-02-28T10:48:09;15.20;;;8.53;;
75793;SDS011;64418;47.536;19.074;2024-02-28T10:50:36;16.70;;;7.40;;
75793;SDS011;64418;47.536;19.074;2024-02-28T10:53:02;13.27;;;7.45;;
75793;SDS011;64418;47.536;19.074;2024-02-28T10:55:32;18.80;;;8.50;;
75793;SDS011;64418;47.536;19.074;2024-02-28T10:58:01;16.12;;;7.68;;
75793;SDS011;64418;47.536;19.074;2024-02-28T11:00:28;14.90;;;9.03;;
75793;SDS011;64418;47.536;19.074;2024-02-28T11:02:55;15.27;;;9.88;;
75793;SDS011;64418;47.536;19.074;2024-02-28T11:05:22;18.02;;;8.18;;
75793;SDS011;64418;47.536;19.074;2024-02-28T11:07:50;13.23;;;8.57;;
75793;SDS011;64418;47.536;19.074;2024-02-28T11:10:17;16.62;;;8.23;;
75793;SDS011;64418;47.536;19.074;2024-02-28T11:12:54;14.45;;;7.87;;
75793;SDS011;64418;47.536;19.074;2024-02-28T11:15:20;13.25;;;7.60;;
75793;SDS011;64418;47.536;19.074;2024-02-28T11:17:50;16.95;;;7.68;;
75793;SDS011;64418;47.536;19.074;2024-02-28T11:20:16;16.23;;;8.63;;
75793;SDS011;64418;47.536;19.074;2024-02-28T11:22:43;17.08;;;8.00;;
75793;SDS011;64418;47.536;19.074;2024-02-28T11:25:09;11.98;;;7.97;;
75793;SDS011;64418;47.536;19.074;2024-02-28T11:27:46;20.08;;;8.63;;
75793;SDS011;64418;47.536;19.074;2024-02-28T11:30:13;16.07;;;8.57;;
75793;SDS011;64418;47.536;19.074;2024-02-28T11:32:39;19.37;;;8.32;;
75793;SDS011;64418;47.536;19.074;2024-02-28T11:35:05;15.35;;;7.70;;
75793;SDS011;64418;47.536;19.074;2024-02-28T11:37:32;13.35;;;7.45;;
75793;SDS011;64418;47.536;19.074;2024-02-28T11:39:59;16.67;;;8.45;;
75793;SDS011;64418;47.536;19.074;2024-02-28T11:42:25;19.33;;;8.17;;
75793;SDS011;64418;47.536;19.074;2024-02-28T11:44:57;15.95;;;8.15;;
75793;SDS011;64418;47.536;19.074;2024-02-28T11:47:23;15.73;;;7.85;;
75793;SDS011;64418;47.536;19.074;2024-02-28T11:49:49;16.00;;;7.75;;
75793;SDS011;64418;47.536;19.074;2024-02-28T11:52:15;19.77;;;8.27;;
75793;SDS011;64418;47.536;19.074;2024-02-28T11:54:41;15.70;;;7.53;;
75793;SDS011;64418;47.536;19.074;2024-02-28T11:57:08;17.87;;;7.90;;
75793;SDS011;64418;47.536;19.074;2024-02-28T11:59:37;17.08;;;8.57;;
75793;SDS011;64418;47.536;19.074;2024-02-28T12:02:12;17.48;;;7.93;;
75793;SDS011;64418;47.536;19.074;2024-02-28T12:04:38;17.35;;;8.10;;
75793;SDS011;64418;47.536;19.074;2024-02-28T12:07:05;15.37;;;7.23;;
75793;SDS011;64418;47.536;19.074;2024-02-28T12:09:31;18.62;;;8.20;;
75793;SDS011;64418;47.536;19.074;2024-02-28T12:12:00;13.40;;;7.32;;
75793;SDS011;64418;47.536;19.074;2024-02-28T12:14:26;13.85;;;7.32;;
75793;SDS011;64418;47.536;19.074;2024-02-28T12:16:52;13.15;;;7.28;;
75793;SDS011;64418;47.536;19.074;2024-02-28T12:19:19;14.67;;;7.53;;
75793;SDS011;64418;47.536;19.074;2024-02-28T12:21:46;12.60;;;7.43;;
75793;SDS011;64418;47.536;19.074;2024-02-28T12:24:12;14.20;;;7.87;;
75793;SDS011;64418;47.536;19.074;2024-02-28T12:26:39;19.67;;;7.20;;
75793;SDS011;64418;47.536;19.074;2024-02-28T12:29:05;17.55;;;7.50;;
75793;SDS011;64418;47.536;19.074;2024-02-28T12:31:31;23.87;;;8.47;;
75793;SDS011;64418;47.536;19.074;2024-02-28T12:33:57;19.00;;;8.05;;
75793;SDS011;64418;47.536;19.074;2024-02-28T12:36:26;19.55;;;7.53;;
75793;SDS011;64418;47.536;19.074;2024-02-28T12:38:52;17.37;;;8.25;;
75793;SDS011;64418;47.536;19.074;2024-02-28T12:41:19;17.13;;;8.27;;
75793;SDS011;64418;47.536;19.074;2024-02-28T12:43:47;21.83;;;9.10;;
75793;SDS011;64418;47.536;19.074;2024-02-28T12:46:15;16.48;;;8.60;;
75793;SDS011;64418;47.536;19.074;2024-02-28T12:48:41;18.75;;;8.57;;
75793;SDS011;64418;47.536;19.074;2024-02-28T12:51:08;16.90;;;7.68;;
75793;SDS011;64418;47.536;19.074;2024-02-28T12:53:40;17.23;;;8.13;;
75793;SDS011;64418;47.536;19.074;2024-02-28T12:56:08;23.65;;;8.60;;
75793;SDS011;64418;47.536;19.074;2024-02-28T12:58:34;17.42;;;7.55;;
75793;SDS011;64418;47.536;19.074;2024-02-28T13:01:01;16.92;;;7.68;;
75793;SDS011;64418;47.536;19.074;2024-02-28T13:03:27;16.70;;;7.28;;
75793;SDS011;64418;47.536;19.074;2024-02-28T13:05:52;18.00;;;7.57;;
75793;SDS011;64418;47.536;19.074;2024-02-28T13:08:19;23.42;;;7.50;;
75793;SDS011;64418;47.536;19.074;2024-02-28T13:10:46;17.95;;;7.60;;
75793;SDS011;64418;47.536;19.074;2024-02-28T13:13:13;17.67;;;7.22;;
75793;SDS011;64418;47.536;19.074;2024-02-28T13:15:39;17.63;;;7.80;;
75793;SDS011;64418;47.536;19.074;2024-02-28T13:18:05;16.77;;;7.60;;
75793;SDS011;64418;47.536;19.074;2024-02-28T13:20:32;15.15;;;7.82;;
75793;SDS011;64418;47.536;19.074;2024-02-28T13:22:58;19.02;;;7.95;;
75793;SDS011;64418;47.536;19.074;2024-02-28T13:25:27;20.13;;;7.90;;
75793;SDS011;64418;47.536;19.074;2024-02-28T13:27:55;15.93;;;7.30;;
75793;SDS011;64418;47.536;19.074;2024-02-28T13:30:21;13.57;;;7.18;;
75793;SDS011;64418;47.536;19.074;2024-02-28T13:32:47;14.02;;;7.45;;
75793;SDS011;64418;47.536;19.074;2024-02-28T13:35:13;15.17;;;6.83;;
75793;SDS011;64418;47.536;19.074;2024-02-28T13:37:39;20.62;;;7.62;;
75793;SDS011;64418;47.536;19.074;2024-02-28T13:40:06;14.27;;;7.07;;
75793;SDS011;64418;47.536;19.074;2024-02-28T13:42:33;16.65;;;7.40;;
75793;SDS011;64418;47.536;19.074;2024-02-28T13:45:00;19.63;;;7.17;;
75793;SDS011;64418;47.536;19.074;2024-02-28T13:47:26;12.82;;;7.55;;
75793;SDS011;64418;47.536;19.074;2024-02-28T13:49:53;19.25;;;7.70;;
75793;SDS011;64418;47.536;19.074;2024-02-28T13:52:19;17.45;;;7.53;;
75793;SDS011;64418;47.536;19.074;2024-02-28T13:54:45;17.57;;;6.83;;
75793;SDS011;64418;47.536;19.074;2024-02-28T13:57:12;14.00;;;7.05;;
75793;SDS011;64418;47.536;19.074;2024-02-28T13:59:38;16.83;;;7.57;;
75793;SDS011;64418;47.536;19.074;2024-02-28T14:02:05;14.43;;;7.10;;
75793;SDS011;64418;47.536;19.074;2024-02-28T14:04:33;11.25;;;6.43;;
75793;SDS011;64418;47.536;19.074;2024-02-28T14:06:59;10.00;;;5.90;;
75793;SDS011;64418;47.536;19.074;2024-02-28T14:09:25;17.30;;;7.55;;
75793;SDS011;64418;47.536;19.074;2024-02-28T14:11:51;23.73;;;7.07;;
75793;SDS011;64418;47.536;19.074;2024-02-28T14:14:17;15.55;;;6.68;;
75793;SDS011;64418;47.536;19.074;2024-02-28T14:16:44;19.50;;;7.30;;
75793;SDS011;64418;47.536;19.074;2024-02-28T14:19:12;15.57;;;6.97;;
75793;SDS011;64418;47.536;19.074;2024-02-28T14:21:38;13.13;;;7.10;;
75793;SDS011;64418;47.536;19.074;2024-02-28T14:24:04;13.77;;;7.43;;
75793;SDS011;64418;47.536;19.074;2024-02-28T14:26:31;14.48;;;7.10;;